sensor_id;sensor_type;location;lat;lon;timestamp;pressure;altitude;pressure_sealevel;temperature;humidity
39141;BME280;24875;48.436;10.298;2022-09-09T00:01:58;96013.34;;;14.21;100.00
39141;BME280;24875;48.436;10.298;2022-09-09T00:04:28;96011.09;;;14.31;100.00
39141;BME280;24875;48.436;10.298;2022-09-09T00:07:04;96008.84;;;14.28;100.00
39141;BME280;24875;48.436;10.298;2022-09-09T00:09:40;96011.72;;;14.33;100.00
39141;BME280;24875;48.436;10.298;2022-09-09T00:12:11;96013.94;;;14.30;100.00
39141;BME280;24875;48.436;10.298;2022-09-09T00:14:45;96015.97;;;14.34;100.00
39141;BME280;24875;48.436;10.298;2022-09-09T00:17:22;96011.72;;;14.33;100.00
39141;BME280;24875;48.436;10.298;2022-09-09T00:19:56;96014.53;;;14.38;100.00
39141;BME280;24875;48.436;10.298;2022-09-09T00:22:27;96019.84;;;14.38;100.00
39141;BME280;24875;48.436;10.298;2022-09-09T00:24:55;96012.28;;;14.42;100.00
39141;BME280;24875;48.436;10.298;2022-09-09T00:27:28;96017.81;;;14.47;100.00
39141;BME280;24875;48.436;10.298;2022-09-09T00:30:00;96009.03;;;14.53;100.00
39141;BME280;24875;48.436;10.298;2022-09-09T00:32:30;96003.31;;;14.56;100.00
39141;BME280;24875;48.436;10.298;2022-09-09T00:35:01;96005.72;;;14.63;100.00
39141;BME280;24875;48.436;10.298;2022-09-09T00:37:28;96002.69;;;14.66;100.00
39141;BME280;24875;48.436;10.298;2022-09-09T00:39:59;96006.56;;;14.70;100.00
39141;BME280;24875;48.436;10.298;2022-09-09T00:42:36;96007.31;;;14.84;100.00
39141;BME280;24875;48.436;10.298;2022-09-09T00:45:19;96000.56;;;14.88;100.00
39141;BME280;24875;48.436;10.298;2022-09-09T00:47:53;96006.72;;;14.88;100.00
39141;BME280;24875;48.436;10.298;2022-09-09T00:50:38;96010.56;;;14.92;100.00
39141;BME280;24875;48.436;10.298;2022-09-09T00:53:23;96000.00;;;14.79;100.00
39141;BME280;24875;48.436;10.298;2022-09-09T00:55:55;96004.28;;;14.67;100.00
39141;BME280;24875;48.436;10.298;2022-09-09T00:58:22;95993.94;;;14.47;100.00
39141;BME280;24875;48.436;10.298;2022-09-09T01:00:52;95999.66;;;14.44;100.00
39141;BME280;24875;48.436;10.298;2022-09-09T01:03:32;96003.34;;;14.43;100.00
39141;BME280;24875;48.436;10.298;2022-09-09T01:06:12;96014.56;;;14.45;100.00
39141;BME280;24875;48.436;10.298;2022-09-09T01:09:08;96012.09;;;14.43;100.00
39141;BME280;24875;48.436;10.298;2022-09-09T01:11:43;96008.84;;;14.35;100.00
39141;BME280;24875;48.436;10.298;2022-09-09T01:14:24;96009.66;;;14.22;100.00
39141;BME280;24875;48.436;10.298;2022-09-09T01:16:59;95996.41;;;14.16;100.00
39141;BME280;24875;48.436;10.298;2022-09-09T01:19:40;95999.47;;;14.26;100.00
39141;BME280;24875;48.436;10.298;2022-09-09T01:22:17;95992.97;;;14.28;100.00
39141;BME280;24875;48.436;10.298;2022-09-09T01:25:05;95986.44;;;14.31;100.00
39141;BME280;24875;48.436;10.298;2022-09-09T01:27:37;95987.84;;;14.33;100.00
39141;BME280;24875;48.436;10.298;2022-09-09T01:30:09;95990.91;;;14.30;100.00
39141;BME280;24875;48.436;10.298;2022-09-09T01:32:41;95980.28;;;14.30;100.00
39141;BME280;24875;48.436;10.298;2022-09-09T01:35:11;95988.88;;;14.26;100.00
39141;BME280;24875;48.436;10.298;2022-09-09T01:37:39;95988.47;;;14.16;100.00
39141;BME280;24875;48.436;10.298;2022-09-09T01:40:07;95982.38;;;14.22;100.00
39141;BME280;24875;48.436;10.298;2022-09-09T01:42:33;95986.63;;;14.16;100.00
39141;BME280;24875;48.436;10.298;2022-09-09T01:45:01;95987.25;;;14.25;100.00
39141;BME280;24875;48.436;10.298;2022-09-09T01:47:28;95986.84;;;14.15;100.00
39141;BME280;24875;48.436;10.298;2022-09-09T01:49:54;95983.16;;;14.16;100.00
39141;BME280;24875;48.436;10.298;2022-09-09T01:52:21;95983.59;;;14.26;100.00
39141;BME280;24875;48.436;10.298;2022-09-09T01:54:48;95989.28;;;14.16;100.00
39141;BME280;24875;48.436;10.298;2022-09-09T01:57:18;95994.19;;;14.19;100.00
39141;BME280;24875;48.436;10.298;2022-09-09T02:00:03;95983.97;;;14.23;100.00
39141;BME280;24875;48.436;10.298;2022-09-09T02:02:33;95990.69;;;14.19;100.00
39141;BME280;24875;48.436;10.298;2022-09-09T02:05:09;95983.19;;;14.09;100.00
39141;BME280;24875;48.436;10.298;2022-09-09T02:07:40;95978.28;;;14.13;100.00
39141;BME280;24875;48.436;10.298;2022-09-09T02:10:11;95976.22;;;14.02;100.00
39141;BME280;24875;48.436;10.298;2022-09-09T02:12:42;95975.59;;;13.94;100.00
39141;BME280;24875;48.436;10.298;2022-09-09T02:15:18;95976.22;;;14.02;100.00
39141;BME280;24875;48.436;10.298;2022-09-09T02:17:49;95974.38;;;13.90;100.00
39141;BME280;24875;48.436;10.298;2022-09-09T02:20:19;95972.72;;;13.82;100.00
39141;BME280;24875;48.436;10.298;2022-09-09T02:22:49;95976.22;;;13.89;100.00
39141;BME280;24875;48.436;10.298;2022-09-09T02:25:18;95969.28;;;13.95;100.00
39141;BME280;24875;48.436;10.298;2022-09-09T02:27:47;95969.69;;;13.98;100.00
39141;BME280;24875;48.436;10.298;2022-09-09T02:30:17;95971.13;;;13.88;100.00
39141;BME280;24875;48.436;10.298;2022-09-09T02:32:45;95958.66;;;13.49;100.00
39141;BME280;24875;48.436;10.298;2022-09-09T02:35:15;95961.91;;;13.45;100.00
39141;BME280;24875;48.436;10.298;2022-09-09T02:37:44;95961.44;;;13.29;100.00
39141;BME280;24875;48.436;10.298;2022-09-09T02:40:13;95967.19;;;13.38;100.00
39141;BME280;24875;48.436;10.298;2022-09-09T02:42:42;95966.75;;;13.35;100.00
39141;BME280;24875;48.436;10.298;2022-09-09T02:45:11;95960.25;;;13.44;100.00
39141;BME280;24875;48.436;10.298;2022-09-09T02:47:46;95970.69;;;13.52;100.00
39141;BME280;24875;48.436;10.298;2022-09-09T02:50:17;95971.69;;;13.57;100.00
39141;BME280;24875;48.436;10.298;2022-09-09T02:53:02;95972.13;;;13.67;100.00
39141;BME280;24875;48.436;10.298;2022-09-09T02:55:38;95974.56;;;13.62;100.00
39141;BME280;24875;48.436;10.298;2022-09-09T02:58:08;95970.69;;;13.45;100.00
39141;BME280;24875;48.436;10.298;2022-09-09T03:00:37;95971.88;;;13.43;100.00
39141;BME280;24875;48.436;10.298;2022-09-09T03:03:06;95975.34;;;13.43;100.00
39141;BME280;24875;48.436;10.298;2022-09-09T03:05:34;95980.63;;;13.37;100.00
39141;BME280;24875;48.436;10.298;2022-09-09T03:08:01;95985.91;;;13.37;100.00
39141;BME280;24875;48.436;10.298;2022-09-09T03:10:28;95977.56;;;13.40;100.00
39141;BME280;24875;48.436;10.298;2022-09-09T03:12:55;95976.13;;;13.31;100.00
39141;BME280;24875;48.436;10.298;2022-09-09T03:15:21;95981.81;;;13.28;100.00
39141;BME280;24875;48.436;10.298;2022-09-09T03:17:48;95989.16;;;13.33;100.00
39141;BME280;24875;48.436;10.298;2022-09-09T03:20:16;95985.09;;;13.30;100.00
39141;BME280;24875;48.436;10.298;2022-09-09T03:22:42;95981.19;;;13.33;100.00
39141;BME280;24875;48.436;10.298;2022-09-09T03:25:10;95981.19;;;13.33;100.00
39141;BME280;24875;48.436;10.298;2022-09-09T03:27:36;95989.56;;;13.30;100.00
39141;BME280;24875;48.436;10.298;2022-09-09T03:30:03;95992.00;;;13.38;100.00
39141;BME280;24875;48.436;10.298;2022-09-09T03:32:30;95999.81;;;13.52;100.00
39141;BME280;24875;48.436;10.298;2022-09-09T03:34:57;95992.88;;;13.57;100.00
39141;BME280;24875;48.436;10.298;2022-09-09T03:37:25;95997.41;;;13.70;100.00
39141;BME280;24875;48.436;10.298;2022-09-09T03:39:52;95991.66;;;13.60;100.00
39141;BME280;24875;48.436;10.298;2022-09-09T03:42:19;95999.19;;;13.63;100.00
39141;BME280;24875;48.436;10.298;2022-09-09T03:44:47;95980.28;;;13.66;100.00
39141;BME280;24875;48.436;10.298;2022-09-09T03:47:16;95979.47;;;13.78;100.00
39141;BME280;24875;48.436;10.298;2022-09-09T03:49:42;95980.28;;;13.72;100.00
39141;BME280;24875;48.436;10.298;2022-09-09T03:52:09;95975.78;;;13.79;100.00
39141;BME280;24875;48.436;10.298;2022-09-09T03:54:37;95982.72;;;13.87;100.00
39141;BME280;24875;48.436;10.298;2022-09-09T03:57:04;95974.78;;;13.87;100.00
39141;BME280;24875;48.436;10.298;2022-09-09T03:59:31;95977.63;;;13.85;100.00
39141;BME280;24875;48.436;10.298;2022-09-09T04:01:58;95975.78;;;13.98;100.00
39141;BME280;24875;48.436;10.298;2022-09-09T04:04:24;95975.00;;;13.98;100.00
39141;BME280;24875;48.436;10.298;2022-09-09T04:06:51;95978.66;;;14.03;100.00
39141;BME280;24875;48.436;10.298;2022-09-09T04:09:18;95975.78;;;14.05;100.00
39141;BME280;24875;48.436;10.298;2022-09-09T04:11:45;95974.56;;;14.07;100.00
39141;BME280;24875;48.436;10.298;2022-09-09T04:14:12;95979.69;;;14.09;100.00
39141;BME280;24875;48.436;10.298;2022-09-09T04:16:39;95989.50;;;14.15;100.00
39141;BME280;24875;48.436;10.298;2022-09-09T04:19:09;95980.09;;;14.12;100.00
39141;BME280;24875;48.436;10.298;2022-09-09T04:21:37;95987.88;;;14.27;100.00
39141;BME280;24875;48.436;10.298;2022-09-09T04:24:06;95977.03;;;14.35;100.00
39141;BME280;24875;48.436;10.298;2022-09-09T04:26:33;95968.91;;;14.30;100.00
39141;BME280;24875;48.436;10.298;2022-09-09T04:29:01;95980.50;;;14.22;100.00
39141;BME280;24875;48.436;10.298;2022-09-09T04:31:27;95980.31;;;14.24;100.00
39141;BME280;24875;48.436;10.298;2022-09-09T04:33:54;95986.44;;;14.31;100.00
39141;BME280;24875;48.436;10.298;2022-09-09T04:36:21;95976.03;;;14.36;100.00
39141;BME280;24875;48.436;10.298;2022-09-09T04:38:48;95983.56;;;14.39;100.00
39141;BME280;24875;48.436;10.298;2022-09-09T04:41:15;95995.97;;;14.38;100.00
39141;BME280;24875;48.436;10.298;2022-09-09T04:43:42;95995.19;;;14.38;100.00
39141;BME280;24875;48.436;10.298;2022-09-09T04:46:11;95992.50;;;14.51;100.00
39141;BME280;24875;48.436;10.298;2022-09-09T04:48:37;96001.09;;;14.46;100.00
39141;BME280;24875;48.436;10.298;2022-09-09T04:51:05;96002.72;;;14.54;100.00
39141;BME280;24875;48.436;10.298;2022-09-09T04:53:32;96007.84;;;14.42;100.00
39141;BME280;24875;48.436;10.298;2022-09-09T04:56:04;96007.16;;;14.60;100.00
39141;BME280;24875;48.436;10.298;2022-09-09T04:58:31;96006.97;;;14.55;100.00
39141;BME280;24875;48.436;10.298;2022-09-09T05:01:03;95996.75;;;14.64;100.00
39141;BME280;24875;48.436;10.298;2022-09-09T05:03:31;95996.75;;;14.64;100.00
39141;BME280;24875;48.436;10.298;2022-09-09T05:06:03;96013.28;;;14.73;100.00
39141;BME280;24875;48.436;10.298;2022-09-09T05:08:29;96011.66;;;14.72;100.00
39141;BME280;24875;48.436;10.298;2022-09-09T05:10:56;96002.47;;;14.74;100.00
39141;BME280;24875;48.436;10.298;2022-09-09T05:13:23;95995.31;;;14.75;100.00
39141;BME280;24875;48.436;10.298;2022-09-09T05:15:51;95992.03;;;14.79;100.00
39141;BME280;24875;48.436;10.298;2022-09-09T05:18:18;96010.84;;;14.65;100.00
39141;BME280;24875;48.436;10.298;2022-09-09T05:20:46;96012.25;;;14.80;100.00
39141;BME280;24875;48.436;10.298;2022-09-09T05:23:12;96009.59;;;14.80;100.00
39141;BME280;24875;48.436;10.298;2022-09-09T05:25:39;96019.81;;;14.70;100.00
39141;BME280;24875;48.436;10.298;2022-09-09T05:28:06;96014.91;;;14.80;100.00
39141;BME280;24875;48.436;10.298;2022-09-09T05:30:33;96005.06;;;14.87;100.00
39141;BME280;24875;48.436;10.298;2022-09-09T05:33:00;96008.53;;;14.81;100.00
39141;BME280;24875;48.436;10.298;2022-09-09T05:35:27;96014.44;;;14.96;100.00
39141;BME280;24875;48.436;10.298;2022-09-09T05:37:59;96022.56;;;15.08;100.00
39141;BME280;24875;48.436;10.298;2022-09-09T05:40:26;96027.47;;;15.04;100.00
39141;BME280;24875;48.436;10.298;2022-09-09T05:42:53;96019.72;;;15.03;100.00
39141;BME280;24875;48.436;10.298;2022-09-09T05:45:19;96023.00;;;14.98;100.00
39141;BME280;24875;48.436;10.298;2022-09-09T05:47:51;96033.16;;;15.21;100.00
39141;BME280;24875;48.436;10.298;2022-09-09T05:50:18;96031.13;;;15.16;100.00
39141;BME280;24875;48.436;10.298;2022-09-09T05:52:44;96029.88;;;15.19;100.00
39141;BME280;24875;48.436;10.298;2022-09-09T05:55:12;96030.69;;;15.19;100.00
39141;BME280;24875;48.436;10.298;2022-09-09T05:57:39;96025.81;;;15.23;100.00
39141;BME280;24875;48.436;10.298;2022-09-09T06:00:07;96026.81;;;15.28;100.00
39141;BME280;24875;48.436;10.298;2022-09-09T06:02:33;96020.72;;;15.21;100.00
39141;BME280;24875;48.436;10.298;2022-09-09T06:05:02;96016.00;;;15.23;100.00
39141;BME280;24875;48.436;10.298;2022-09-09T06:07:28;96011.09;;;15.26;100.00
39141;BME280;24875;48.436;10.298;2022-09-09T06:09:55;96014.28;;;15.35;100.00
39141;BME280;24875;48.436;10.298;2022-09-09T06:12:23;96019.97;;;15.45;100.00
39141;BME280;24875;48.436;10.298;2022-09-09T06:14:49;96006.50;;;15.40;100.00
39141;BME280;24875;48.436;10.298;2022-09-09T06:17:17;96016.69;;;15.49;100.00
39141;BME280;24875;48.436;10.298;2022-09-09T06:19:43;96011.81;;;15.40;100.00
39141;BME280;24875;48.436;10.298;2022-09-09T06:22:09;96016.72;;;15.43;100.00
39141;BME280;24875;48.436;10.298;2022-09-09T06:24:37;96014.19;;;15.61;100.00
39141;BME280;24875;48.436;10.298;2022-09-09T06:27:04;96012.25;;;15.74;100.00
39141;BME280;24875;48.436;10.298;2022-09-09T06:29:33;96000.28;;;15.89;100.00
39141;BME280;24875;48.436;10.298;2022-09-09T06:32:00;96008.66;;;15.93;100.00
39141;BME280;24875;48.436;10.298;2022-09-09T06:34:27;96005.59;;;15.89;100.00
39141;BME280;24875;48.436;10.298;2022-09-09T06:36:54;96007.81;;;15.99;100.00
39141;BME280;24875;48.436;10.298;2022-09-09T06:39:23;96012.91;;;16.00;100.00
39141;BME280;24875;48.436;10.298;2022-09-09T06:41:49;96008.16;;;16.02;100.00
39141;BME280;24875;48.436;10.298;2022-09-09T06:44:18;96016.88;;;16.16;100.00
39141;BME280;24875;48.436;10.298;2022-09-09T06:46:46;96030.31;;;16.27;100.00
39141;BME280;24875;48.436;10.298;2022-09-09T06:49:13;96033.56;;;16.23;100.00
39141;BME280;24875;48.436;10.298;2022-09-09T06:51:40;96038.69;;;16.24;100.00
39141;BME280;24875;48.436;10.298;2022-09-09T06:54:08;96036.22;;;16.29;100.00
39141;BME280;24875;48.436;10.298;2022-09-09T06:56:37;96039.03;;;16.34;100.00
39141;BME280;24875;48.436;10.298;2022-09-09T06:59:07;96034.75;;;16.02;100.00
39141;BME280;24875;48.436;10.298;2022-09-09T07:01:36;96042.34;;;15.99;100.00
39141;BME280;24875;48.436;10.298;2022-09-09T07:04:04;96044.25;;;16.16;100.00
39141;BME280;24875;48.436;10.298;2022-09-09T07:06:35;96046.50;;;16.19;100.00
39141;BME280;24875;48.436;10.298;2022-09-09T07:09:04;96039.09;;;16.28;100.00
39141;BME280;24875;48.436;10.298;2022-09-09T07:11:32;96038.78;;;16.42;100.00
39141;BME280;24875;48.436;10.298;2022-09-09T07:14:00;96026.56;;;16.35;100.00
39141;BME280;24875;48.436;10.298;2022-09-09T07:16:28;96033.50;;;16.60;100.00
39141;BME280;24875;48.436;10.298;2022-09-09T07:18:56;96025.97;;;16.75;100.00
39141;BME280;24875;48.436;10.298;2022-09-09T07:21:26;96024.81;;;16.89;100.00
39141;BME280;24875;48.436;10.298;2022-09-09T07:23:53;96030.44;;;16.81;100.00
39141;BME280;24875;48.436;10.298;2022-09-09T07:26:22;96031.22;;;17.06;100.00
39141;BME280;24875;48.436;10.298;2022-09-09T07:28:49;96029.44;;;17.17;100.00
39141;BME280;24875;48.436;10.298;2022-09-09T07:31:17;96025.69;;;17.43;100.00
39141;BME280;24875;48.436;10.298;2022-09-09T07:33:44;96023.41;;;17.58;100.00
39141;BME280;24875;48.436;10.298;2022-09-09T07:36:13;96031.16;;;17.77;100.00
39141;BME280;24875;48.436;10.298;2022-09-09T07:38:43;96033.84;;;17.77;100.00
39141;BME280;24875;48.436;10.298;2022-09-09T07:41:13;96041.81;;;17.77;100.00
39141;BME280;24875;48.436;10.298;2022-09-09T07:43:40;96038.00;;;17.37;100.00
39141;BME280;24875;48.436;10.298;2022-09-09T07:46:08;96043.19;;;17.68;100.00
39141;BME280;24875;48.436;10.298;2022-09-09T07:48:35;96047.31;;;17.64;100.00
39141;BME280;24875;48.436;10.298;2022-09-09T07:51:07;96045.56;;;17.87;100.00
39141;BME280;24875;48.436;10.298;2022-09-09T07:53:34;96056.47;;;17.86;100.00
39141;BME280;24875;48.436;10.298;2022-09-09T07:56:07;96062.38;;;17.88;100.00
39141;BME280;24875;48.436;10.298;2022-09-09T07:58:34;96058.94;;;17.70;100.00
39141;BME280;24875;48.436;10.298;2022-09-09T08:01:06;96058.59;;;17.95;100.00
39141;BME280;24875;48.436;10.298;2022-09-09T08:03:33;96062.75;;;17.91;100.00
39141;BME280;24875;48.436;10.298;2022-09-09T08:06:01;96057.00;;;18.06;100.00
39141;BME280;24875;48.436;10.298;2022-09-09T08:08:28;96055.38;;;18.16;100.00
39141;BME280;24875;48.436;10.298;2022-09-09T08:11:02;96056.53;;;18.38;100.00
39141;BME280;24875;48.436;10.298;2022-09-09T08:13:30;96055.53;;;18.62;100.00
39141;BME280;24875;48.436;10.298;2022-09-09T08:16:04;96059.25;;;18.84;100.00
39141;BME280;24875;48.436;10.298;2022-09-09T08:18:31;96058.44;;;18.83;100.00
39141;BME280;24875;48.436;10.298;2022-09-09T08:20:57;96057.75;;;18.76;98.49
39141;BME280;24875;48.436;10.298;2022-09-09T08:23:25;96058.19;;;18.62;100.00
39141;BME280;24875;48.436;10.298;2022-09-09T08:25:52;96050.31;;;18.90;100.00
39141;BME280;24875;48.436;10.298;2022-09-09T08:28:18;96060.06;;;18.84;100.00
39141;BME280;24875;48.436;10.298;2022-09-09T08:30:46;96056.94;;;18.98;99.57
39141;BME280;24875;48.436;10.298;2022-09-09T08:33:13;96053.00;;;19.12;98.33
39141;BME280;24875;48.436;10.298;2022-09-09T08:35:49;96051.84;;;19.08;97.62
39141;BME280;24875;48.436;10.298;2022-09-09T08:38:16;96054.38;;;18.92;98.06
39141;BME280;24875;48.436;10.298;2022-09-09T08:40:47;96064.16;;;18.98;99.14
39141;BME280;24875;48.436;10.298;2022-09-09T08:43:16;96063.66;;;18.90;97.39
39141;BME280;24875;48.436;10.298;2022-09-09T08:45:50;96063.56;;;19.19;98.43
39141;BME280;24875;48.436;10.298;2022-09-09T08:48:36;96061.91;;;18.95;96.84
39141;BME280;24875;48.436;10.298;2022-09-09T08:51:07;96062.16;;;18.82;97.07
39141;BME280;24875;48.436;10.298;2022-09-09T08:53:38;96057.53;;;18.89;97.87
39141;BME280;24875;48.436;10.298;2022-09-09T08:56:11;96059.97;;;18.91;98.55
39141;BME280;24875;48.436;10.298;2022-09-09T08:58:43;96060.63;;;18.86;96.95
39141;BME280;24875;48.436;10.298;2022-09-09T09:01:27;96067.75;;;19.15;98.21
39141;BME280;24875;48.436;10.298;2022-09-09T09:04:00;96075.66;;;19.10;97.64
39141;BME280;24875;48.436;10.298;2022-09-09T09:06:41;96057.63;;;19.17;96.74
39141;BME280;24875;48.436;10.298;2022-09-09T09:09:20;96066.22;;;19.42;96.64
39141;BME280;24875;48.436;10.298;2022-09-09T09:11:50;96063.66;;;19.35;95.90
39141;BME280;24875;48.436;10.298;2022-09-09T09:14:20;96064.13;;;19.44;96.50
39141;BME280;24875;48.436;10.298;2022-09-09T09:16:53;96066.47;;;19.79;98.63
39141;BME280;24875;48.436;10.298;2022-09-09T09:19:21;96070.44;;;19.77;93.06
39141;BME280;24875;48.436;10.298;2022-09-09T09:21:54;96064.16;;;19.71;92.61
39141;BME280;24875;48.436;10.298;2022-09-09T09:24:27;96056.59;;;19.80;93.19
39141;BME280;24875;48.436;10.298;2022-09-09T09:26:58;96064.22;;;19.49;95.63
39141;BME280;24875;48.436;10.298;2022-09-09T09:29:26;96062.72;;;19.80;95.01
39141;BME280;24875;48.436;10.298;2022-09-09T09:31:56;96063.59;;;19.69;93.43
39141;BME280;24875;48.436;10.298;2022-09-09T09:34:26;96061.84;;;19.63;92.18
39141;BME280;24875;48.436;10.298;2022-09-09T09:36:56;96059.88;;;19.70;93.85
39141;BME280;24875;48.436;10.298;2022-09-09T09:39:25;96059.09;;;19.98;93.31
39141;BME280;24875;48.436;10.298;2022-09-09T09:41:52;96059.16;;;19.75;90.89
39141;BME280;24875;48.436;10.298;2022-09-09T09:44:23;96058.66;;;19.78;91.62
39141;BME280;24875;48.436;10.298;2022-09-09T09:46:50;96052.22;;;19.90;91.64
39141;BME280;24875;48.436;10.298;2022-09-09T09:49:18;96054.28;;;20.11;90.83
39141;BME280;24875;48.436;10.298;2022-09-09T09:51:44;96052.34;;;20.23;90.40
39141;BME280;24875;48.436;10.298;2022-09-09T09:54:18;96055.63;;;20.58;86.65
39141;BME280;24875;48.436;10.298;2022-09-09T09:56:48;96057.97;;;20.71;88.39
39141;BME280;24875;48.436;10.298;2022-09-09T09:59:33;96039.56;;;21.23;86.67
39141;BME280;24875;48.436;10.298;2022-09-09T10:02:22;96045.66;;;21.40;80.64
39141;BME280;24875;48.436;10.298;2022-09-09T10:05:02;96050.69;;;21.53;78.81
39141;BME280;24875;48.436;10.298;2022-09-09T10:07:29;96042.47;;;21.43;81.21
39141;BME280;24875;48.436;10.298;2022-09-09T10:09:57;96045.47;;;21.63;82.03
39141;BME280;24875;48.436;10.298;2022-09-09T10:12:37;96053.38;;;21.53;80.61
39141;BME280;24875;48.436;10.298;2022-09-09T10:15:29;96040.63;;;21.43;78.75
39141;BME280;24875;48.436;10.298;2022-09-09T10:17:59;96042.28;;;21.28;79.36
39141;BME280;24875;48.436;10.298;2022-09-09T10:20:37;96035.78;;;21.24;76.30
39141;BME280;24875;48.436;10.298;2022-09-09T10:23:15;96044.06;;;21.23;77.03
39141;BME280;24875;48.436;10.298;2022-09-09T10:25:59;96045.78;;;21.29;75.91
39141;BME280;24875;48.436;10.298;2022-09-09T10:28:41;96040.03;;;21.20;76.97
39141;BME280;24875;48.436;10.298;2022-09-09T10:31:19;96039.00;;;21.42;72.63
39141;BME280;24875;48.436;10.298;2022-09-09T10:33:51;96034.03;;;21.51;71.43
39141;BME280;24875;48.436;10.298;2022-09-09T10:36:21;96027.88;;;21.72;72.71
39141;BME280;24875;48.436;10.298;2022-09-09T10:38:54;96034.53;;;21.69;68.09
39141;BME280;24875;48.436;10.298;2022-09-09T10:41:39;96025.13;;;21.67;65.80
39141;BME280;24875;48.436;10.298;2022-09-09T10:44:26;96022.53;;;21.98;65.95
39141;BME280;24875;48.436;10.298;2022-09-09T10:47:15;96021.66;;;21.93;68.73
39141;BME280;24875;48.436;10.298;2022-09-09T10:50:00;96018.31;;;22.28;63.80
39141;BME280;24875;48.436;10.298;2022-09-09T10:52:49;96031.66;;;22.23;64.29
39141;BME280;24875;48.436;10.298;2022-09-09T10:55:24;96027.47;;;21.85;63.22
39141;BME280;24875;48.436;10.298;2022-09-09T10:57:54;96024.84;;;21.90;64.12
39141;BME280;24875;48.436;10.298;2022-09-09T11:00:24;96014.66;;;22.39;70.09
39141;BME280;24875;48.436;10.298;2022-09-09T11:02:55;96022.09;;;22.32;61.22
39141;BME280;24875;48.436;10.298;2022-09-09T11:05:27;96026.66;;;22.63;62.62
39141;BME280;24875;48.436;10.298;2022-09-09T11:07:58;96017.19;;;22.51;61.67
39141;BME280;24875;48.436;10.298;2022-09-09T11:10:30;96013.28;;;22.68;60.31
39141;BME280;24875;48.436;10.298;2022-09-09T11:13:08;96005.63;;;22.24;64.72
39141;BME280;24875;48.436;10.298;2022-09-09T11:15:41;96008.34;;;22.55;64.52
39141;BME280;24875;48.436;10.298;2022-09-09T11:18:13;96009.91;;;22.82;69.25
39141;BME280;24875;48.436;10.298;2022-09-09T11:20:40;96011.84;;;22.92;61.51
39141;BME280;24875;48.436;10.298;2022-09-09T11:23:13;96010.13;;;22.76;58.03
39141;BME280;24875;48.436;10.298;2022-09-09T11:25:44;96003.50;;;22.88;62.96
39141;BME280;24875;48.436;10.298;2022-09-09T11:28:26;96017.16;;;23.18;61.46
39141;BME280;24875;48.436;10.298;2022-09-09T11:31:07;96009.94;;;23.24;62.53
39141;BME280;24875;48.436;10.298;2022-09-09T11:33:55;96004.75;;;23.63;60.08
39141;BME280;24875;48.436;10.298;2022-09-09T11:39:44;95999.34;;;23.58;59.43
39141;BME280;24875;48.436;10.298;2022-09-09T11:42:19;95988.81;;;23.52;59.87
39141;BME280;24875;48.436;10.298;2022-09-09T11:44:46;95990.75;;;23.10;55.46
39141;BME280;24875;48.436;10.298;2022-09-09T11:47:20;95990.72;;;23.00;59.13
39141;BME280;24875;48.436;10.298;2022-09-09T11:49:50;95993.28;;;22.49;59.32
39141;BME280;24875;48.436;10.298;2022-09-09T11:52:22;95991.78;;;22.68;61.99
39141;BME280;24875;48.436;10.298;2022-09-09T11:54:54;95988.81;;;23.01;63.23
39141;BME280;24875;48.436;10.298;2022-09-09T11:57:25;95983.91;;;22.93;59.00
39141;BME280;24875;48.436;10.298;2022-09-09T11:59:53;95984.38;;;22.80;58.73
39141;BME280;24875;48.436;10.298;2022-09-09T12:02:24;95988.47;;;22.92;55.88
39141;BME280;24875;48.436;10.298;2022-09-09T12:04:57;95991.50;;;23.01;58.23
39141;BME280;24875;48.436;10.298;2022-09-09T12:07:31;95991.69;;;22.89;58.11
39141;BME280;24875;48.436;10.298;2022-09-09T12:10:04;95993.31;;;22.90;56.65
39141;BME280;24875;48.436;10.298;2022-09-09T12:12:33;95991.34;;;22.81;56.20
39141;BME280;24875;48.436;10.298;2022-09-09T12:15:18;95990.13;;;22.98;56.81
39141;BME280;24875;48.436;10.298;2022-09-09T12:17:47;95994.81;;;22.76;57.02
39141;BME280;24875;48.436;10.298;2022-09-09T12:20:17;96001.44;;;22.64;56.11
39141;BME280;24875;48.436;10.298;2022-09-09T12:23:03;96004.16;;;22.69;55.22
39141;BME280;24875;48.436;10.298;2022-09-09T12:25:44;95992.34;;;22.39;54.31
39141;BME280;24875;48.436;10.298;2022-09-09T12:28:16;95995.78;;;22.61;56.80
39141;BME280;24875;48.436;10.298;2022-09-09T12:30:49;96000.94;;;22.72;57.46
39141;BME280;24875;48.436;10.298;2022-09-09T12:33:19;95990.41;;;22.61;58.27
39141;BME280;24875;48.436;10.298;2022-09-09T12:35:53;95977.06;;;22.39;58.09
39141;BME280;24875;48.436;10.298;2022-09-09T12:38:27;95985.97;;;22.45;59.35
39141;BME280;24875;48.436;10.298;2022-09-09T12:40:58;95981.59;;;22.39;59.39
39141;BME280;24875;48.436;10.298;2022-09-09T12:43:26;95976.19;;;22.29;56.14
39141;BME280;24875;48.436;10.298;2022-09-09T12:45:56;95974.66;;;22.38;57.81
39141;BME280;24875;48.436;10.298;2022-09-09T12:48:30;95973.47;;;22.60;58.26
39141;BME280;24875;48.436;10.298;2022-09-09T12:50:58;95973.81;;;22.68;58.25
39141;BME280;24875;48.436;10.298;2022-09-09T12:53:27;95960.34;;;23.05;59.31
39141;BME280;24875;48.436;10.298;2022-09-09T12:55:58;95961.31;;;22.89;54.75
39141;BME280;24875;48.436;10.298;2022-09-09T12:58:26;95955.78;;;23.00;57.70
39141;BME280;24875;48.436;10.298;2022-09-09T13:00:58;95970.38;;;23.14;51.50
39141;BME280;24875;48.436;10.298;2022-09-09T13:03:26;95959.16;;;22.91;49.86
39141;BME280;24875;48.436;10.298;2022-09-09T13:05:54;95949.25;;;22.91;52.54